createdAt,value
2018-12-26T00:01:03.606Z,10.20
2018-12-26T00:03:34.378Z,10.10
2018-12-26T00:06:05.143Z,8.80
2018-12-26T00:08:35.911Z,7.97
2018-12-26T00:11:06.654Z,7.43
2018-12-26T00:13:37.417Z,8.03
2018-12-26T00:16:08.278Z,8.90
2018-12-26T00:18:39.158Z,8.50
2018-12-26T00:21:10.169Z,7.90
2018-12-26T00:23:41.021Z,6.67
2018-12-26T00:26:11.774Z,7.50
2018-12-26T00:28:42.565Z,6.47
2018-12-26T00:31:13.332Z,7.40
2018-12-26T00:33:44.086Z,7.73
2018-12-26T00:36:14.862Z,7.23
2018-12-26T00:38:45.626Z,7.43
2018-12-26T00:41:16.404Z,5.97
2018-12-26T00:43:47.195Z,6.83
2018-12-26T00:46:18.133Z,7.50
2018-12-26T00:48:48.958Z,6.30
2018-12-26T00:51:19.737Z,6.20
2018-12-26T00:53:50.510Z,7.47
2018-12-26T00:56:21.292Z,7.50
2018-12-26T00:58:52.047Z,5.87
2018-12-26T01:01:22.835Z,7.10
2018-12-26T01:03:53.592Z,6.07
2018-12-26T01:06:24.356Z,7.37
2018-12-26T01:08:55.140Z,7.67
2018-12-26T01:11:25.898Z,7.03
2018-12-26T01:13:56.978Z,7.53
2018-12-26T01:16:27.752Z,7.28
2018-12-26T01:18:58.523Z,6.80
2018-12-26T01:21:29.297Z,7.83
2018-12-26T01:24:00.062Z,6.73
2018-12-26T01:26:30.840Z,6.17
2018-12-26T01:29:01.601Z,6.80
2018-12-26T01:31:32.382Z,7.37
2018-12-26T01:34:03.195Z,6.10
2018-12-26T01:36:33.999Z,6.93
2018-12-26T01:39:04.865Z,7.40
2018-12-26T01:41:35.627Z,6.53
2018-12-26T01:44:06.385Z,6.73
2018-12-26T01:46:37.146Z,6.90
2018-12-26T01:49:07.915Z,13.53
2018-12-26T01:51:38.682Z,10.10
2018-12-26T01:54:09.434Z,6.63
2018-12-26T01:56:40.301Z,7.00
2018-12-26T01:59:11.211Z,7.67
2018-12-26T02:01:41.974Z,8.00
2018-12-26T02:04:12.731Z,8.27
2018-12-26T02:06:43.535Z,8.17
2018-12-26T02:09:14.501Z,8.30
2018-12-26T02:11:45.296Z,6.30
2018-12-26T02:14:16.071Z,7.33
2018-12-26T02:16:46.839Z,6.07
2018-12-26T02:19:17.611Z,7.00
2018-12-26T02:21:48.424Z,10.77
2018-12-26T02:24:19.182Z,10.10
2018-12-26T02:26:49.963Z,9.50
2018-12-26T02:29:20.735Z,8.57
2018-12-26T02:31:51.502Z,9.23
2018-12-26T02:34:22.267Z,8.30
2018-12-26T02:36:53.030Z,11.30
2018-12-26T02:39:23.795Z,7.23
2018-12-26T02:41:54.561Z,9.20
2018-12-26T02:44:25.360Z,11.80
2018-12-26T02:46:56.136Z,11.43
2018-12-26T02:49:27.220Z,9.63
2018-12-26T02:51:57.991Z,12.80
2018-12-26T02:54:28.752Z,11.20
2018-12-26T02:56:59.505Z,12.37
2018-12-26T02:59:30.282Z,14.07
2018-12-26T03:02:01.043Z,15.83
2018-12-26T03:04:31.809Z,13.93
2018-12-26T03:07:02.674Z,13.40
2018-12-26T03:09:33.480Z,18.77
2018-12-26T03:12:04.244Z,15.27
2018-12-26T03:14:35.023Z,14.40
2018-12-26T03:17:05.783Z,13.43
2018-12-26T03:19:36.662Z,15.83
2018-12-26T03:22:07.443Z,15.07
2018-12-26T03:24:38.207Z,13.70
2018-12-26T03:27:08.981Z,14.40
2018-12-26T03:29:39.759Z,13.20
2018-12-26T03:32:10.545Z,13.57
2018-12-26T03:34:41.402Z,15.10
2018-12-26T03:37:12.157Z,15.77
2018-12-26T03:39:42.926Z,13.40
2018-12-26T03:42:13.682Z,15.10
2018-12-26T03:44:45.422Z,13.70
2018-12-26T03:47:16.296Z,15.68
2018-12-26T03:49:47.084Z,14.57
2018-12-26T03:52:17.868Z,15.87
2018-12-26T03:54:48.636Z,19.50
2018-12-26T03:57:19.392Z,15.20
2018-12-26T03:59:50.237Z,17.73
2018-12-26T04:02:21.091Z,18.57
2018-12-26T04:04:51.869Z,16.67
2018-12-26T04:07:22.625Z,13.70
2018-12-26T04:09:53.404Z,16.30
2018-12-26T04:12:24.152Z,19.40
2018-12-26T04:14:54.933Z,17.40
2018-12-26T04:17:25.825Z,18.07
2018-12-26T04:19:56.705Z,16.07
2018-12-26T04:22:27.717Z,17.23
2018-12-26T04:24:58.540Z,20.23
2018-12-26T04:27:29.303Z,14.37
2018-12-26T04:30:00.115Z,16.10
2018-12-26T04:32:30.843Z,17.43
2018-12-26T04:35:01.649Z,15.20
2018-12-26T04:37:32.416Z,16.87
2018-12-26T04:40:04.491Z,15.73
2018-12-26T04:42:35.263Z,17.02
2018-12-26T04:45:06.095Z,19.10
2018-12-26T04:47:36.883Z,16.60
2018-12-26T04:50:07.758Z,18.70
2018-12-26T04:52:38.533Z,15.17
2018-12-26T04:55:09.320Z,19.60
2018-12-26T04:57:40.390Z,14.50
2018-12-26T05:00:11.175Z,16.12
2018-12-26T05:02:41.971Z,16.80
2018-12-26T05:05:12.761Z,16.10
2018-12-26T05:07:43.508Z,15.20
2018-12-26T05:10:14.277Z,15.90
2018-12-26T05:12:45.077Z,18.33
2018-12-26T05:15:15.877Z,17.10
2018-12-26T05:17:46.649Z,15.40
2018-12-26T05:20:17.445Z,17.13
2018-12-26T05:22:48.216Z,15.50
2018-12-26T05:25:18.989Z,16.50
2018-12-26T05:27:49.749Z,16.40
2018-12-26T05:30:20.514Z,17.30
2018-12-26T05:32:51.275Z,13.90
2018-12-26T05:35:22.098Z,14.00
2018-12-26T05:37:52.866Z,15.03
2018-12-26T05:40:23.640Z,14.57
2018-12-26T05:42:54.429Z,19.10
2018-12-26T05:45:25.193Z,18.07
2018-12-26T05:47:55.958Z,17.57
2018-12-26T05:50:26.837Z,17.70
2018-12-26T05:52:57.865Z,16.97
2018-12-26T05:55:28.630Z,19.82
2018-12-26T05:57:59.393Z,16.37
2018-12-26T06:00:30.153Z,14.97
2018-12-26T06:03:00.946Z,14.83
2018-12-26T06:05:31.715Z,19.97
2018-12-26T06:08:02.491Z,15.10
2018-12-26T06:10:33.251Z,20.03
2018-12-26T06:13:04.029Z,17.43
2018-12-26T06:15:34.815Z,16.30
2018-12-26T06:18:05.570Z,17.97
2018-12-26T06:20:36.340Z,16.10
2018-12-26T06:23:07.129Z,14.23
2018-12-26T06:25:37.911Z,16.70
2018-12-26T06:28:08.734Z,17.43
2018-12-26T06:30:39.572Z,17.90
2018-12-26T06:33:10.357Z,16.80
2018-12-26T06:35:41.113Z,18.60
2018-12-26T06:38:11.878Z,19.60
2018-12-26T06:40:42.624Z,21.30
2018-12-26T06:43:13.405Z,19.90
2018-12-26T06:45:44.174Z,17.23
2018-12-26T06:48:15.111Z,16.60
2018-12-26T06:50:45.969Z,17.97
2018-12-26T06:53:16.755Z,16.10
2018-12-26T06:55:47.528Z,18.53
2018-12-26T06:58:18.310Z,16.80
2018-12-26T07:00:49.054Z,16.10
2018-12-26T07:03:19.824Z,14.27
2018-12-26T07:05:50.593Z,16.30
2018-12-26T07:08:21.436Z,14.57
2018-12-26T07:10:52.195Z,15.77
2018-12-26T07:13:22.984Z,11.70
2018-12-26T07:15:53.722Z,15.40
2018-12-26T07:18:24.516Z,12.97
2018-12-26T07:20:55.283Z,14.30
2018-12-26T07:23:26.073Z,18.93
2018-12-26T07:25:56.853Z,19.40
2018-12-26T07:28:27.627Z,16.23
2018-12-26T07:30:58.395Z,18.67
2018-12-26T07:33:29.166Z,16.17
2018-12-26T07:36:00.029Z,17.07
2018-12-26T07:38:30.863Z,25.87
2018-12-26T07:41:01.628Z,19.90
2018-12-26T07:43:32.397Z,16.37
2018-12-26T07:46:03.155Z,19.57
2018-12-26T07:48:33.933Z,24.03
2018-12-26T07:51:04.698Z,22.70
2018-12-26T07:53:35.751Z,26.30
2018-12-26T07:56:06.576Z,20.45
2018-12-26T07:58:37.358Z,21.30
2018-12-26T08:01:08.121Z,24.53
2018-12-26T08:03:38.886Z,24.87
2018-12-26T08:06:09.649Z,25.60
2018-12-26T08:08:40.432Z,24.50
2018-12-26T08:11:11.179Z,26.43
2018-12-26T08:13:41.949Z,32.87
2018-12-26T08:16:12.729Z,28.70
2018-12-26T08:18:43.519Z,21.23
2018-12-26T08:21:14.300Z,29.50
2018-12-26T08:23:45.112Z,31.37
2018-12-26T08:26:15.877Z,33.70
2018-12-26T08:28:46.642Z,33.13
2018-12-26T08:31:17.403Z,27.67
2018-12-26T08:33:48.224Z,36.00
2018-12-26T08:36:19.038Z,26.17
2018-12-26T08:38:49.823Z,24.83
2018-12-26T08:41:20.581Z,27.27
2018-12-26T08:43:51.368Z,24.67
2018-12-26T08:46:22.144Z,30.10
2018-12-26T08:48:52.931Z,24.30
2018-12-26T08:51:23.676Z,27.77
2018-12-26T08:53:54.436Z,22.83
2018-12-26T08:56:25.215Z,26.30
2018-12-26T08:58:55.988Z,25.23
2018-12-26T09:01:26.744Z,22.00
2018-12-26T09:03:57.552Z,26.10
2018-12-26T09:06:28.308Z,26.93
2018-12-26T09:08:59.077Z,25.43
2018-12-26T09:11:29.844Z,21.83
2018-12-26T09:14:00.664Z,25.27
2018-12-26T09:16:31.452Z,29.10
2018-12-26T09:19:02.227Z,27.50
2018-12-26T09:21:33.005Z,26.37
2018-12-26T09:24:03.764Z,27.40
2018-12-26T09:26:34.541Z,23.70
2018-12-26T09:29:05.289Z,25.40
2018-12-26T09:31:36.073Z,22.33
2018-12-26T09:34:06.837Z,24.07
2018-12-26T09:36:37.615Z,19.57
2018-12-26T09:39:08.371Z,18.50
2018-12-26T09:41:39.153Z,20.40
2018-12-26T09:44:09.907Z,17.70
2018-12-26T09:46:40.675Z,19.73
2018-12-26T09:49:11.433Z,17.23
2018-12-26T09:51:42.200Z,18.00
2018-12-26T09:54:12.963Z,18.40
2018-12-26T09:56:43.741Z,16.57
2018-12-26T09:59:14.505Z,15.97
2018-12-26T10:01:45.323Z,15.27
2018-12-26T10:04:16.100Z,17.30
2018-12-26T10:06:46.867Z,16.53
2018-12-26T10:09:17.630Z,15.47
2018-12-26T10:11:48.418Z,16.20
2018-12-26T10:14:19.174Z,16.33
2018-12-26T10:16:49.943Z,15.93
2018-12-26T10:19:20.738Z,14.30
2018-12-26T10:21:51.621Z,14.67
2018-12-26T10:24:22.387Z,14.00
2018-12-26T10:26:53.156Z,13.33
2018-12-26T10:29:23.910Z,14.10
2018-12-26T10:31:54.684Z,16.37
2018-12-26T10:34:25.440Z,11.63
2018-12-26T10:36:56.205Z,12.60
2018-12-26T10:39:26.986Z,18.73
2018-12-26T10:41:57.822Z,12.97
2018-12-26T10:44:28.556Z,11.73
2018-12-26T10:46:59.314Z,10.97
2018-12-26T10:49:30.077Z,11.07
2018-12-26T10:52:00.848Z,15.20
2018-12-26T10:54:31.707Z,14.90
2018-12-26T10:57:02.477Z,14.70
2018-12-26T10:59:33.633Z,13.63
2018-12-26T11:02:04.419Z,12.45
2018-12-26T11:04:35.189Z,12.60
2018-12-26T11:07:05.965Z,16.80
2018-12-26T11:09:36.728Z,14.37
2018-12-26T11:12:07.497Z,16.90
2018-12-26T11:14:38.255Z,15.63
2018-12-26T11:17:09.336Z,15.37
2018-12-26T11:19:40.254Z,16.95
2018-12-26T11:22:11.025Z,15.80
2018-12-26T11:24:41.779Z,14.47
2018-12-26T11:27:12.554Z,16.60
2018-12-26T11:29:43.327Z,15.20
2018-12-26T11:32:14.093Z,17.07
2018-12-26T11:34:44.856Z,17.50
2018-12-26T11:37:15.630Z,14.10
2018-12-26T11:39:46.752Z,13.90
2018-12-26T11:42:17.627Z,13.60
2018-12-26T11:44:48.385Z,14.83
2018-12-26T11:47:19.167Z,15.03
2018-12-26T11:49:49.922Z,13.60
2018-12-26T11:52:20.716Z,14.73
2018-12-26T11:54:51.486Z,17.30
2018-12-26T11:57:22.250Z,17.27
2018-12-26T11:59:53.097Z,13.97
2018-12-26T12:02:24.076Z,16.57
2018-12-26T12:04:54.841Z,14.97
2018-12-26T12:07:25.622Z,16.30
2018-12-26T12:09:56.386Z,18.90
2018-12-26T12:12:27.171Z,18.10
2018-12-26T12:14:58.014Z,18.50
2018-12-26T12:17:28.907Z,20.87
2018-12-26T12:19:59.700Z,16.10
2018-12-26T12:22:30.555Z,19.77
2018-12-26T12:25:01.479Z,16.33
2018-12-26T12:27:32.718Z,19.80
2018-12-26T12:30:04.467Z,19.17
2018-12-26T12:32:35.266Z,21.23
2018-12-26T12:35:06.050Z,17.70
2018-12-26T12:37:36.871Z,17.43
2018-12-26T12:40:09.599Z,19.60
2018-12-26T12:42:40.435Z,22.30
2018-12-26T12:45:12.163Z,19.53
2018-12-26T12:47:42.942Z,21.85
2018-12-26T12:50:13.718Z,21.50
2018-12-26T12:52:44.535Z,21.30
2018-12-26T12:55:15.333Z,16.57
2018-12-26T12:57:47.138Z,21.87
2018-12-26T13:00:18.915Z,25.68
2018-12-26T13:02:50.682Z,20.00
2018-12-26T13:05:22.546Z,18.15
2018-12-26T13:07:53.315Z,18.62
2018-12-26T13:10:24.086Z,20.57
2018-12-26T13:12:54.910Z,18.77
2018-12-26T13:15:31.662Z,19.57
2018-12-26T13:18:02.438Z,19.35
2018-12-26T13:20:34.199Z,22.40
2018-12-26T13:23:05.986Z,20.62
2018-12-26T13:25:36.748Z,19.98
2018-12-26T13:28:07.501Z,23.03
2018-12-26T13:30:38.271Z,21.83
2018-12-26T13:33:09.055Z,22.33
2018-12-26T13:35:40.657Z,17.87
2018-12-26T13:38:11.426Z,23.60
2018-12-26T13:40:42.197Z,20.57
2018-12-26T13:43:12.964Z,21.67
2018-12-26T13:45:44.840Z,20.53
2018-12-26T13:48:15.610Z,16.52
2018-12-26T13:50:46.363Z,19.33
2018-12-26T13:53:17.131Z,19.50
2018-12-26T13:55:49.000Z,20.03
2018-12-26T13:58:19.769Z,23.12
2018-12-26T14:00:50.538Z,17.60
2018-12-26T14:03:21.323Z,18.17
2018-12-26T14:05:52.100Z,18.20
2018-12-26T14:08:22.876Z,19.03
2018-12-26T14:10:53.652Z,20.77
2018-12-26T14:13:24.397Z,21.80
2018-12-26T14:15:55.158Z,20.97
2018-12-26T14:18:25.932Z,20.40
2018-12-26T14:20:56.708Z,23.97
2018-12-26T14:23:27.578Z,21.83
2018-12-26T14:25:58.353Z,23.67
2018-12-26T14:28:29.217Z,22.87
2018-12-26T14:31:00.001Z,23.53
2018-12-26T14:33:30.760Z,23.80
2018-12-26T14:36:03.390Z,20.57
2018-12-26T14:38:34.265Z,23.92
2018-12-26T14:41:05.029Z,24.43
2018-12-26T14:43:35.777Z,18.60
2018-12-26T14:46:06.554Z,21.27
2018-12-26T14:48:37.316Z,22.77
2018-12-26T14:51:08.083Z,22.20
2018-12-26T14:53:38.855Z,20.27
2018-12-26T14:56:09.616Z,24.17
2018-12-26T14:58:40.416Z,20.07
2018-12-26T15:01:11.164Z,22.13
2018-12-26T15:03:41.951Z,22.47
2018-12-26T15:06:12.733Z,20.30
2018-12-26T15:08:43.723Z,21.57
2018-12-26T15:11:14.524Z,22.55
2018-12-26T15:13:45.253Z,28.23
2018-12-26T15:16:16.023Z,26.57
2018-12-26T15:18:46.838Z,23.07
2018-12-26T15:21:17.620Z,27.17
2018-12-26T15:23:48.392Z,24.83
2018-12-26T15:26:19.158Z,26.03
2018-12-26T15:28:49.909Z,28.27
2018-12-26T15:31:20.691Z,28.40
2018-12-26T15:33:51.445Z,23.50
2018-12-26T15:36:22.215Z,23.87
2018-12-26T15:38:52.966Z,20.70
2018-12-26T15:41:23.751Z,24.10
2018-12-26T15:43:54.868Z,26.03
2018-12-26T15:46:25.708Z,27.87
2018-12-26T15:48:56.436Z,31.53
2018-12-26T15:51:27.186Z,26.03
2018-12-26T15:53:57.940Z,28.70
2018-12-26T15:56:28.808Z,26.77
2018-12-26T15:58:59.583Z,33.30
2018-12-26T16:01:30.336Z,29.60
2018-12-26T16:04:01.093Z,30.73
2018-12-26T16:06:31.901Z,27.83
2018-12-26T16:09:04.552Z,28.40
2018-12-26T16:11:35.397Z,31.60
2018-12-26T16:14:06.165Z,33.73
2018-12-26T16:16:36.927Z,30.60
2018-12-26T16:19:07.720Z,33.90
2018-12-26T16:21:38.472Z,41.80
2018-12-26T16:24:09.242Z,34.80
2018-12-26T16:26:40.005Z,34.57
2018-12-26T16:29:10.765Z,30.80
2018-12-26T16:31:41.514Z,32.60
2018-12-26T16:34:12.289Z,30.33
2018-12-26T16:36:43.071Z,33.23
2018-12-26T16:39:13.853Z,34.77
2018-12-26T16:41:44.624Z,29.13
2018-12-26T16:44:15.397Z,35.50
2018-12-26T16:46:46.173Z,31.17
2018-12-26T16:49:16.929Z,35.23
2018-12-26T16:51:47.689Z,34.07
2018-12-26T16:54:18.472Z,32.20
2018-12-26T16:56:49.240Z,30.60
2018-12-26T16:59:20.026Z,29.20
2018-12-26T17:01:50.804Z,29.93
2018-12-26T17:04:21.595Z,35.70
2018-12-26T17:06:52.372Z,33.37
2018-12-26T17:09:23.142Z,29.63
2018-12-26T17:11:53.896Z,36.40
2018-12-26T17:14:24.677Z,30.00
2018-12-26T17:16:55.441Z,28.73
2018-12-26T17:19:26.229Z,31.13
2018-12-26T17:21:57.037Z,33.17
2018-12-26T17:24:27.819Z,34.30
2018-12-26T17:26:58.587Z,37.93
2018-12-26T17:29:29.380Z,32.03
2018-12-26T17:32:00.130Z,36.70
2018-12-26T17:34:30.885Z,35.70
2018-12-26T17:37:01.642Z,36.83
2018-12-26T17:39:32.412Z,33.57
2018-12-26T17:42:03.177Z,34.37
2018-12-26T17:44:33.963Z,31.20
2018-12-26T17:47:04.742Z,32.57
2018-12-26T17:49:35.516Z,35.63
2018-12-26T17:52:06.275Z,37.90
2018-12-26T17:54:39.645Z,35.23
2018-12-26T17:57:10.732Z,35.03
2018-12-26T17:59:48.249Z,33.15
2018-12-26T18:02:25.633Z,36.05
2018-12-26T18:04:56.401Z,33.83
2018-12-26T18:07:27.189Z,30.37
2018-12-26T18:09:57.964Z,36.60
2018-12-26T18:12:28.763Z,31.80
2018-12-26T18:14:59.535Z,39.00
2018-12-26T18:17:30.308Z,29.10
2018-12-26T18:20:01.078Z,32.73
2018-12-26T18:22:31.874Z,30.77
2018-12-26T18:25:03.466Z,36.83
2018-12-26T18:27:34.222Z,34.10
2018-12-26T18:30:05.685Z,35.70
2018-12-26T18:32:36.451Z,26.62
2018-12-26T18:35:07.222Z,34.27
2018-12-26T18:37:37.971Z,31.67
2018-12-26T18:40:08.777Z,35.60
2018-12-26T18:42:39.527Z,29.87
2018-12-26T18:45:10.288Z,36.27
2018-12-26T18:47:41.053Z,31.20
2018-12-26T18:50:11.831Z,28.57
2018-12-26T18:52:42.591Z,29.10
2018-12-26T18:55:13.377Z,34.60
2018-12-26T18:57:44.135Z,35.53
2018-12-26T19:00:14.901Z,34.70
2018-12-26T19:02:45.679Z,34.40
2018-12-26T19:05:16.443Z,30.20
2018-12-26T19:07:47.199Z,32.20
2018-12-26T19:10:17.995Z,36.67
2018-12-26T19:12:48.749Z,34.43
2018-12-26T19:15:19.516Z,34.90
2018-12-26T19:17:50.298Z,33.13
2018-12-26T19:20:21.064Z,33.17
2018-12-26T19:22:51.858Z,35.13
2018-12-26T19:25:22.700Z,36.40
2018-12-26T19:27:53.450Z,38.47
2018-12-26T19:30:24.234Z,34.67
2018-12-26T19:32:54.999Z,36.90
2018-12-26T19:35:25.765Z,34.90
2018-12-26T19:37:56.543Z,38.07
2018-12-26T19:40:27.321Z,39.40
2018-12-26T19:42:58.090Z,38.77
2018-12-26T19:45:28.853Z,38.90
2018-12-26T19:47:59.641Z,38.50
2018-12-26T19:50:30.508Z,43.97
2018-12-26T19:53:01.277Z,39.20
2018-12-26T19:55:32.046Z,36.17
2018-12-26T19:58:02.799Z,38.03
2018-12-26T20:00:33.616Z,40.10
2018-12-26T20:03:04.386Z,39.37
2018-12-26T20:05:35.140Z,37.33
2018-12-26T20:08:05.917Z,33.30
2018-12-26T20:10:36.690Z,34.37
2018-12-26T20:13:07.466Z,36.90
2018-12-26T20:15:38.215Z,129.17
2018-12-26T20:18:08.991Z,46.13
2018-12-26T20:20:39.754Z,47.93
2018-12-26T20:23:10.516Z,36.23
2018-12-26T20:25:41.264Z,38.27
2018-12-26T20:28:12.030Z,42.93
2018-12-26T20:30:42.803Z,39.60
2018-12-26T20:33:13.579Z,43.77
2018-12-26T20:35:44.338Z,43.67
2018-12-26T20:38:15.106Z,41.77
2018-12-26T20:40:45.858Z,45.60
2018-12-26T20:43:16.619Z,42.93
2018-12-26T20:45:47.382Z,53.77
2018-12-26T20:48:18.141Z,48.60
2018-12-26T20:50:48.941Z,47.07
2018-12-26T20:53:19.672Z,48.13
2018-12-26T20:55:50.446Z,49.87
2018-12-26T20:58:21.202Z,52.30
2018-12-26T21:00:51.961Z,50.80
2018-12-26T21:03:22.729Z,50.17
2018-12-26T21:05:53.514Z,43.23
2018-12-26T21:08:24.280Z,51.90
2018-12-26T21:10:55.171Z,49.10
2018-12-26T21:13:25.927Z,43.43
2018-12-26T21:15:56.747Z,44.90
2018-12-26T21:18:28.531Z,43.07
2018-12-26T21:20:59.349Z,45.65
2018-12-26T21:23:30.134Z,50.70
2018-12-26T21:26:02.649Z,48.40
2018-12-26T21:28:33.452Z,46.63
2018-12-26T21:31:04.232Z,52.53
2018-12-26T21:33:35.004Z,44.60
2018-12-26T21:36:05.771Z,50.67
2018-12-26T21:38:36.536Z,44.00
2018-12-26T21:41:07.295Z,48.37
2018-12-26T21:43:38.080Z,47.57
2018-12-26T21:46:08.839Z,47.27
2018-12-26T21:48:39.601Z,46.57
2018-12-26T21:51:10.378Z,45.47
2018-12-26T21:53:41.142Z,41.10
2018-12-26T21:56:11.905Z,44.33
2018-12-26T21:58:42.671Z,38.97
2018-12-26T22:01:13.533Z,52.13
2018-12-26T22:03:44.306Z,41.60
2018-12-26T22:06:15.071Z,46.47
2018-12-26T22:08:45.855Z,38.43
2018-12-26T22:11:16.621Z,48.47
2018-12-26T22:13:47.422Z,39.30
2018-12-26T22:16:18.174Z,44.00
2018-12-26T22:18:49.004Z,39.33
2018-12-26T22:21:19.764Z,43.53
2018-12-26T22:23:50.575Z,42.90
2018-12-26T22:26:21.330Z,42.40
2018-12-26T22:28:52.135Z,41.00
2018-12-26T22:31:22.898Z,41.77
2018-12-26T22:33:53.688Z,43.90
2018-12-26T22:36:24.488Z,40.73
2018-12-26T22:38:55.264Z,53.77
2018-12-26T22:41:26.057Z,49.97
2018-12-26T22:43:56.830Z,40.70
2018-12-26T22:46:27.594Z,50.83
2018-12-26T22:48:58.347Z,45.63
2018-12-26T22:51:29.131Z,43.30
2018-12-26T22:53:59.894Z,43.83
2018-12-26T22:56:30.665Z,49.03
2018-12-26T22:59:01.526Z,42.53
2018-12-26T23:01:32.296Z,44.13
2018-12-26T23:04:03.068Z,48.50
2018-12-26T23:06:33.856Z,52.97
2018-12-26T23:09:05.764Z,49.07
2018-12-26T23:11:36.539Z,46.90
2018-12-26T23:14:08.416Z,42.63
2018-12-26T23:16:39.186Z,48.40
2018-12-26T23:19:09.950Z,44.43
2018-12-26T23:21:40.756Z,48.90
2018-12-26T23:24:11.540Z,43.30
2018-12-26T23:26:42.318Z,47.27
2018-12-26T23:29:13.074Z,44.67
2018-12-26T23:31:43.836Z,41.83
2018-12-26T23:34:14.594Z,45.17
2018-12-26T23:36:45.358Z,38.93
2018-12-26T23:39:16.115Z,46.50
2018-12-26T23:41:46.888Z,47.27
2018-12-26T23:44:17.642Z,45.80
2018-12-26T23:46:48.429Z,40.43
2018-12-26T23:49:19.190Z,45.10
2018-12-26T23:51:50.063Z,43.40
2018-12-26T23:54:20.833Z,42.63
2018-12-26T23:56:51.611Z,34.33
2018-12-26T23:59:22.402Z,37.30
